Time;durP1;ratioP1;P1;durP2;ratioP2;P2;SDS_P1;SDS_P2;PMS_P1;PMS_P2;Temp;Humidity;BMP_temperature;BMP_pressure;BME280_temperature;BME280_humidity;BME280_pressure;Samples;Min_cycle;Max_cycle;Signal;HPM_P1;HPM_P2
2021/10/02 00:31:41;;;;;;;13.05;8.70;;;13.10;99.90;;;;;;5080365;28;20048;-67
2021/10/02 00:44:52;;;;;;;16.85;10.75;;;13.20;99.90;;;;;;5080226;28;20104;-67
2021/10/02 00:47:20;;;;;;;16.02;10.32;;;13.20;99.90;;;;;;5082504;28;20392;-67
2021/10/02 00:49:47;;;;;;;13.05;10.18;;;13.10;99.90;;;;;;5083210;28;20036;-67
2021/10/02 00:52:16;;;;;;;14.05;11.00;;;13.10;99.90;;;;;;5082084;28;20055;-67
2021/10/02 00:54:42;;;;;;;15.25;10.85;;;13.10;99.90;;;;;;5081479;28;20044;-67
2021/10/02 00:57:09;;;;;;;14.20;10.43;;;13.10;99.90;;;;;;5081939;28;20412;-67
2021/10/02 00:59:36;;;;;;;12.32;10.20;;;13.10;99.90;;;;;;5081767;28;20064;-67
2021/10/02 01:02:10;;;;;;;14.48;10.27;;;13.10;99.90;;;;;;5082755;28;20063;-67
2021/10/02 01:05:07;;;;;;;12.00;10.70;;;13.10;99.90;;;;;;5086003;28;20079;-67
2021/10/02 01:07:51;;;;;;;13.70;11.68;;;13.10;99.90;;;;;;5082084;28;20052;-67
2021/10/02 01:10:31;;;;;;;13.20;10.90;;;13.10;99.90;;;;;;5079268;28;20053;-67
2021/10/02 01:13:51;;;;;;;12.63;11.18;;;13.10;99.90;;;;;;5081749;28;20045;-67
2021/10/02 01:16:31;;;;;;;14.45;12.23;;;13.10;99.90;;;;;;5005246;28;20046;-68
2021/10/02 01:19:12;;;;;;;;;;;13.10;99.90;;;;;;5005371;28;20089;-67
2021/10/02 01:21:59;;;;;;;17.58;11.63;;;13.00;99.90;;;;;;5021225;28;20016;-67
2021/10/02 01:24:42;;;;;;;16.48;12.00;;;13.00;99.90;;;;;;5020920;28;20092;-67
2021/10/02 01:27:50;;;;;;;16.63;12.75;;;13.00;99.90;;;;;;4988584;28;20078;-67
2021/10/02 01:33:10;;;;;;;13.77;10.82;;;13.00;99.90;;;;;;5004563;28;20053;-67
2021/10/02 01:35:47;;;;;;;16.50;12.15;;;13.00;99.90;;;;;;5020533;28;20057;-67
2021/10/02 01:49:18;;;;;;;15.65;12.15;;;13.00;99.90;;;;;;5010842;28;20073;-67
2021/10/02 01:51:47;;;;;;;12.52;11.23;;;13.10;99.90;;;;;;5082630;28;20515;-67
2021/10/02 01:54:14;;;;;;;15.05;12.48;;;13.10;99.90;;;;;;5082349;28;20052;-67
2021/10/02 01:56:42;;;;;;;13.60;12.02;;;13.10;99.90;;;;;;5082608;28;20072;-67
2021/10/02 01:59:10;;;;;;;15.13;12.70;;;13.00;99.90;;;;;;5080785;28;20052;-67
2021/10/02 02:01:41;;;;;;;17.20;12.57;;;13.00;99.90;;;;;;5082512;28;20052;-67
2021/10/02 02:04:07;;;;;;;15.02;12.88;;;13.00;99.90;;;;;;5079795;28;20051;-67
2021/10/02 02:06:34;;;;;;;16.17;13.43;;;13.00;99.90;;;;;;5081743;28;20072;-67
2021/10/02 02:09:00;;;;;;;17.77;12.75;;;13.00;99.90;;;;;;5081730;28;20037;-67
2021/10/02 02:11:27;;;;;;;15.40;12.75;;;12.90;99.90;;;;;;5078380;28;20105;-67
2021/10/02 02:13:55;;;;;;;14.95;13.35;;;12.90;99.90;;;;;;5081422;28;20048;-67
2021/10/02 02:16:22;;;;;;;14.77;13.27;;;12.90;99.90;;;;;;5083167;28;20512;-67
2021/10/02 02:18:49;;;;;;;18.63;13.70;;;12.90;99.90;;;;;;5082536;28;20041;-67
2021/10/02 02:21:16;;;;;;;16.00;13.20;;;12.90;99.90;;;;;;5080819;28;20075;-67
2021/10/02 02:23:42;;;;;;;16.85;13.70;;;12.90;99.90;;;;;;5080945;28;20063;-67
2021/10/02 02:26:09;;;;;;;14.80;13.23;;;12.90;99.90;;;;;;5081180;28;20049;-67
2021/10/02 02:28:37;;;;;;;17.02;13.90;;;12.90;99.90;;;;;;5080830;28;20186;-67
2021/10/02 02:31:05;;;;;;;17.30;14.05;;;12.80;99.90;;;;;;5078226;28;20048;-67
2021/10/02 02:33:31;;;;;;;18.30;14.52;;;12.80;99.90;;;;;;5080843;28;20099;-67
2021/10/02 02:35:57;;;;;;;19.50;14.35;;;12.80;99.90;;;;;;5082049;28;20036;-67
2021/10/02 02:38:23;;;;;;;19.05;14.45;;;12.90;99.90;;;;;;5080642;28;20045;-67
2021/10/02 02:40:50;;;;;;;17.58;14.30;;;12.90;99.90;;;;;;5082916;28;20031;-67
2021/10/02 02:43:17;;;;;;;17.20;14.13;;;12.90;99.90;;;;;;5082078;28;20086;-67
2021/10/02 02:45:53;;;;;;;16.30;14.23;;;12.90;99.90;;;;;;5076028;28;20060;-67
2021/10/02 02:48:26;;;;;;;19.70;14.30;;;12.90;99.90;;;;;;5080474;28;20044;-67
2021/10/02 02:50:59;;;;;;;18.33;14.00;;;12.90;99.90;;;;;;5079502;28;20052;-67
2021/10/02 02:53:52;;;;;;;15.27;13.68;;;12.90;99.90;;;;;;5080742;28;20051;-67
2021/10/02 02:56:26;;;;;;;15.20;13.13;;;13.00;99.90;;;;;;5081277;28;20093;-67
2021/10/02 02:58:57;;;;;;;20.13;14.50;;;12.90;99.90;;;;;;5084856;28;20043;-67
2021/10/02 03:01:25;;;;;;;16.48;14.27;;;13.00;99.90;;;;;;5085480;28;20083;-67
2021/10/02 03:03:54;;;;;;;15.98;13.35;;;13.00;99.90;;;;;;5085150;28;20049;-67
2021/10/02 03:06:21;;;;;;;17.73;14.77;;;13.00;99.90;;;;;;5084064;28;20036;-67
2021/10/02 03:08:51;;;;;;;15.07;13.48;;;13.00;99.90;;;;;;5081606;28;20057;-67
2021/10/02 03:11:24;;;;;;;18.88;14.30;;;13.00;99.90;;;;;;5077799;28;20081;-67
2021/10/02 03:13:54;;;;;;;16.13;14.25;;;13.00;99.90;;;;;;5085353;28;20040;-67
2021/10/02 03:16:22;;;;;;;;;;;13.00;99.90;;;;;;5097167;28;20041;-67
2021/10/02 03:18:53;;;;;;;18.42;14.80;;;13.00;99.90;;;;;;5085933;28;19921;-67
2021/10/02 03:21:22;;;;;;;17.92;15.35;;;13.00;99.90;;;;;;5081962;28;20094;-67
2021/10/02 03:23:49;;;;;;;20.93;16.80;;;12.90;99.90;;;;;;5084247;28;20045;-67
2021/10/02 03:26:16;;;;;;;18.83;15.48;;;12.80;99.90;;;;;;5081180;28;20044;-67
2021/10/02 03:28:43;;;;;;;16.88;14.30;;;12.90;99.90;;;;;;5078810;28;20076;-67
2021/10/02 03:31:10;;;;;;;18.35;14.75;;;12.90;99.90;;;;;;5067640;28;20041;-67
2021/10/02 03:33:36;;;;;;;18.67;15.50;;;12.90;99.90;;;;;;5082169;28;20049;-67
2021/10/02 03:36:02;;;;;;;18.55;14.27;;;12.80;99.90;;;;;;5083533;28;20055;-67
2021/10/02 03:38:28;;;;;;;17.25;14.48;;;12.80;99.90;;;;;;5078520;28;20040;-67
2021/10/02 03:41:02;;;;;;;21.85;13.77;;;12.80;99.90;;;;;;5084872;28;20047;-67
2021/10/02 03:43:33;;;;;;;18.02;15.90;;;12.90;99.90;;;;;;5084513;28;20052;-66
2021/10/02 03:45:59;;;;;;;18.50;15.02;;;12.80;99.90;;;;;;5082682;28;20028;-67
2021/10/02 03:48:25;;;;;;;15.95;14.25;;;12.90;99.90;;;;;;5080799;28;20040;-67
2021/10/02 03:50:52;;;;;;;17.73;15.05;;;12.90;99.90;;;;;;5066956;28;20044;-67
2021/10/02 03:53:18;;;;;;;19.92;14.77;;;12.80;99.90;;;;;;5081879;28;20094;-67
2021/10/02 03:55:43;;;;;;;20.13;17.02;;;12.90;99.90;;;;;;5085174;28;20053;-67
2021/10/02 03:58:09;;;;;;;19.67;14.85;;;12.80;99.90;;;;;;5080569;28;20126;-67
2021/10/02 04:00:35;;;;;;;19.65;16.13;;;12.80;99.90;;;;;;5099400;28;20048;-67
2021/10/02 04:03:00;;;;;;;19.75;16.17;;;12.80;99.90;;;;;;5081691;28;20052;-67
2021/10/02 04:05:26;;;;;;;18.77;15.68;;;12.80;99.90;;;;;;5084164;28;20040;-67
2021/10/02 04:07:52;;;;;;;22.02;16.42;;;12.70;99.90;;;;;;5081796;28;20044;-67
2021/10/02 04:10:17;;;;;;;20.58;15.90;;;12.80;99.90;;;;;;5084059;28;20072;-67
2021/10/02 04:12:43;;;;;;;18.13;16.05;;;12.80;99.90;;;;;;5083421;28;20050;-67
2021/10/02 04:15:09;;;;;;;18.98;15.65;;;12.70;99.90;;;;;;5084795;28;20047;-67
2021/10/02 04:17:35;;;;;;;19.13;15.95;;;12.70;99.90;;;;;;5083536;28;20048;-67
2021/10/02 04:20:02;;;;;;;19.02;15.40;;;12.70;99.90;;;;;;5082730;28;20048;-67
2021/10/02 04:22:28;;;;;;;21.20;16.58;;;12.70;99.90;;;;;;5082708;28;20462;-67
2021/10/02 04:24:54;;;;;;;21.02;16.00;;;12.80;99.90;;;;;;5082320;28;20049;-67
2021/10/02 04:27:19;;;;;;;20.13;16.77;;;12.80;99.90;;;;;;5082721;28;20055;-68
2021/10/02 04:29:45;;;;;;;17.85;15.45;;;12.80;99.90;;;;;;5081797;28;20131;-67
2021/10/02 04:32:11;;;;;;;23.50;18.02;;;12.70;99.90;;;;;;5081234;28;20040;-67
2021/10/02 04:34:37;;;;;;;23.42;17.73;;;12.70;99.90;;;;;;5083319;28;20131;-67
2021/10/02 04:37:03;;;;;;;20.17;17.48;;;12.70;99.90;;;;;;5080478;28;20048;-67
2021/10/02 04:39:29;;;;;;;19.70;16.98;;;12.70;99.90;;;;;;5063666;28;20072;-67
2021/10/02 04:41:54;;;;;;;24.02;18.15;;;12.70;99.90;;;;;;5082003;28;20063;-67
2021/10/02 04:44:21;;;;;;;22.80;17.45;;;12.70;99.90;;;;;;5078326;28;20480;-67
2021/10/02 04:46:46;;;;;;;24.92;18.40;;;12.70;99.90;;;;;;5083143;28;20178;-67
2021/10/02 04:49:12;;;;;;;23.42;18.60;;;12.70;99.90;;;;;;5083573;28;20052;-67
2021/10/02 04:51:38;;;;;;;23.38;18.23;;;12.70;99.90;;;;;;5080728;28;20067;-67
2021/10/02 04:54:05;;;;;;;23.83;19.65;;;12.70;99.90;;;;;;5079565;28;20125;-67
2021/10/02 04:56:32;;;;;;;27.45;18.23;;;12.70;99.90;;;;;;5082055;28;20128;-67
2021/10/02 04:58:59;;;;;;;23.05;18.17;;;12.70;99.90;;;;;;5084626;28;20404;-67
2021/10/02 05:01:25;;;;;;;26.33;19.83;;;12.70;99.90;;;;;;5079885;28;20127;-67
2021/10/02 05:03:51;;;;;;;24.98;20.20;;;12.70;99.90;;;;;;5081103;28;20044;-67
2021/10/02 05:06:17;;;;;;;26.05;20.45;;;12.70;99.90;;;;;;5064793;28;20051;-67
2021/10/02 05:08:43;;;;;;;26.98;21.13;;;12.70;99.90;;;;;;5081852;28;20060;-67
2021/10/02 05:11:09;;;;;;;25.38;21.48;;;12.70;99.90;;;;;;5078790;28;20045;-67
2021/10/02 05:13:35;;;;;;;28.38;20.30;;;12.70;99.90;;;;;;5078992;28;20052;-67
2021/10/02 05:16:02;;;;;;;27.50;20.20;;;12.70;99.90;;;;;;5081953;28;20048;-67
2021/10/02 05:18:28;;;;;;;28.13;21.42;;;12.70;99.90;;;;;;5074366;28;20490;-67
2021/10/02 05:20:54;;;;;;;26.48;20.67;;;12.80;99.90;;;;;;5078951;28;20064;-67
2021/10/02 05:23:19;;;;;;;27.23;22.30;;;12.80;99.90;;;;;;5078549;28;20051;-67
2021/10/02 05:25:45;;;;;;;25.85;20.75;;;12.80;99.90;;;;;;5081669;28;20036;-67
2021/10/02 05:28:11;;;;;;;30.98;22.30;;;12.70;99.90;;;;;;5082031;28;20044;-67
2021/10/02 05:30:37;;;;;;;31.27;21.50;;;12.70;99.90;;;;;;5081280;28;20049;-67
2021/10/02 05:33:03;;;;;;;25.95;20.50;;;12.70;99.90;;;;;;5078954;28;20496;-67
2021/10/02 05:35:31;;;;;;;30.60;21.33;;;12.80;99.90;;;;;;5078208;28;20032;-67
2021/10/02 05:37:57;;;;;;;28.63;22.48;;;12.80;99.90;;;;;;5079862;28;20059;-67
2021/10/02 05:40:22;;;;;;;33.80;22.92;;;12.80;99.90;;;;;;5077857;28;20079;-67
2021/10/02 05:42:48;;;;;;;29.92;22.77;;;12.80;99.90;;;;;;5075236;28;20055;-67
2021/10/02 05:45:14;;;;;;;26.48;22.15;;;12.80;99.90;;;;;;5082272;28;20071;-67
2021/10/02 05:47:39;;;;;;;26.58;21.25;;;12.80;99.90;;;;;;5080598;28;20048;-67
2021/10/02 05:50:05;;;;;;;24.52;21.10;;;12.90;99.90;;;;;;5078368;28;20044;-67
2021/10/02 05:52:31;;;;;;;28.98;22.25;;;12.90;99.90;;;;;;5080858;28;20356;-67
2021/10/02 05:54:57;;;;;;;25.77;20.58;;;12.90;99.90;;;;;;5080110;28;20045;-67
2021/10/02 05:57:23;;;;;;;29.00;22.02;;;12.90;99.90;;;;;;5077714;28;20049;-67
2021/10/02 05:59:48;;;;;;;27.27;21.00;;;13.00;99.90;;;;;;5083044;28;20040;-67
2021/10/02 06:02:14;;;;;;;23.02;19.40;;;13.00;99.90;;;;;;5081141;28;20075;-67
2021/10/02 06:04:40;;;;;;;28.25;21.73;;;13.00;99.90;;;;;;5084230;28;20045;-67
2021/10/02 06:07:07;;;;;;;27.38;21.65;;;13.00;99.90;;;;;;5083989;28;20083;-67
2021/10/02 06:09:33;;;;;;;28.48;21.63;;;13.00;99.90;;;;;;5082794;28;20071;-67
2021/10/02 06:11:59;;;;;;;26.35;21.10;;;13.10;99.90;;;;;;5081494;28;20188;-67
2021/10/02 06:14:25;;;;;;;27.35;21.02;;;13.10;99.90;;;;;;5077185;28;20051;-67
2021/10/02 06:16:50;;;;;;;26.08;20.30;;;13.10;99.90;;;;;;5082717;28;20063;-67
2021/10/02 06:19:17;;;;;;;27.48;20.35;;;13.10;99.90;;;;;;5082759;28;20516;-67
2021/10/02 06:21:44;;;;;;;23.52;19.70;;;13.20;99.90;;;;;;5083821;28;20052;-67
2021/10/02 06:24:10;;;;;;;23.58;20.35;;;13.20;99.90;;;;;;5082529;28;20045;-67
2021/10/02 06:26:37;;;;;;;30.75;21.77;;;13.20;99.90;;;;;;5079694;28;20318;-67
2021/10/02 06:29:04;;;;;;;29.05;21.27;;;13.10;99.90;;;;;;5079035;28;20145;-67
2021/10/02 06:31:30;;;;;;;27.95;20.80;;;13.20;99.90;;;;;;5080248;28;20045;-65
2021/10/02 06:33:56;;;;;;;26.30;20.88;;;13.20;99.90;;;;;;5063851;28;20091;-64
2021/10/02 06:36:21;;;;;;;25.50;20.50;;;13.20;99.90;;;;;;5086247;28;20457;-65
2021/10/02 06:38:47;;;;;;;29.63;21.20;;;13.20;99.90;;;;;;5084621;28;20060;-65
2021/10/02 06:41:13;;;;;;;26.23;19.85;;;13.20;99.90;;;;;;5083021;28;20408;-65
2021/10/02 06:43:38;;;;;;;24.58;20.35;;;13.20;99.90;;;;;;5085231;28;20052;-65
2021/10/02 06:46:05;;;;;;;28.80;20.73;;;13.20;99.90;;;;;;5084156;28;20044;-64
2021/10/02 06:48:31;;;;;;;28.40;20.95;;;13.20;99.90;;;;;;5080590;28;20067;-65
2021/10/02 06:50:57;;;;;;;30.15;20.15;;;13.20;99.90;;;;;;5085341;28;20171;-65
2021/10/02 06:53:23;;;;;;;26.52;20.55;;;13.20;99.90;;;;;;5086031;28;20042;-67
2021/10/02 06:55:49;;;;;;;25.80;20.08;;;13.20;99.90;;;;;;5084577;28;20051;-64
2021/10/02 06:58:14;;;;;;;26.23;20.05;;;13.20;99.90;;;;;;5068104;28;20049;-64
2021/10/02 07:00:40;;;;;;;24.58;19.13;;;13.30;99.90;;;;;;5083941;28;20044;-64
2021/10/02 07:03:06;;;;;;;24.27;19.23;;;13.30;99.90;;;;;;5067084;28;20497;-64
2021/10/02 07:05:33;;;;;;;28.38;20.02;;;13.40;99.90;;;;;;5079108;28;20052;-64
2021/10/02 07:07:59;;;;;;;26.15;20.17;;;13.40;99.90;;;;;;5085074;28;20041;-64
2021/10/02 07:10:25;;;;;;;22.35;19.17;;;13.50;99.90;;;;;;5085934;28;20044;-64
2021/10/02 07:12:52;;;;;;;25.23;19.25;;;13.50;99.90;;;;;;5081546;28;20056;-64
2021/10/02 07:15:18;;;;;;;28.00;18.60;;;13.50;99.90;;;;;;5066741;28;20044;-63
2021/10/02 07:17:44;;;;;;;23.42;18.10;;;13.50;99.90;;;;;;5086258;28;20033;-64
2021/10/02 07:20:11;;;;;;;26.80;18.83;;;13.60;99.90;;;;;;5086720;28;20044;-64
2021/10/02 07:22:38;;;;;;;27.75;17.88;;;13.60;99.90;;;;;;5085635;28;20055;-63
2021/10/02 07:25:07;;;;;;;21.60;17.73;;;13.70;99.90;;;;;;5080190;28;20036;-64
2021/10/02 07:27:32;;;;;;;23.88;18.50;;;13.70;99.90;;;;;;5085608;28;20040;-64
2021/10/02 07:29:58;;;;;;;22.52;18.15;;;13.70;99.90;;;;;;5082920;28;20060;-64
2021/10/02 07:32:25;;;;;;;25.77;18.02;;;13.80;99.90;;;;;;5084491;28;20048;-64
2021/10/02 07:34:52;;;;;;;21.02;16.83;;;13.90;99.90;;;;;;5083955;28;20044;-64
2021/10/02 07:37:18;;;;;;;22.27;16.40;;;13.80;99.90;;;;;;5079443;28;20116;-64
2021/10/02 07:39:43;;;;;;;22.90;18.70;;;13.90;99.90;;;;;;5084287;28;20082;-64
2021/10/02 07:42:12;;;;;;;20.40;16.55;;;13.80;99.90;;;;;;5082843;28;20041;-64
2021/10/02 07:44:41;;;;;;;24.10;18.17;;;13.80;99.90;;;;;;5085073;28;20049;-64
2021/10/02 07:47:08;;;;;;;26.00;17.75;;;13.80;99.90;;;;;;5082238;28;20063;-65
2021/10/02 07:49:35;;;;;;;22.48;17.58;;;13.90;99.90;;;;;;5083855;28;20478;-64
2021/10/02 07:52:02;;;;;;;23.15;18.35;;;14.00;99.90;;;;;;5083270;28;20076;-64
2021/10/02 07:54:30;;;;;;;23.52;16.83;;;14.00;99.90;;;;;;5082797;28;20040;-64
2021/10/02 07:56:57;;;;;;;22.20;17.08;;;14.10;99.90;;;;;;5083018;28;20056;-64
2021/10/02 07:59:23;;;;;;;23.63;16.73;;;14.10;99.90;;;;;;5081702;28;20049;-64
2021/10/02 08:01:50;;;;;;;23.02;16.33;;;14.20;99.90;;;;;;5067911;28;20124;-64
2021/10/02 08:04:16;;;;;;;20.05;15.50;;;14.20;99.90;;;;;;5085837;28;20049;-64
2021/10/02 08:06:41;;;;;;;20.13;16.65;;;14.30;99.90;;;;;;5065337;28;20299;-64
2021/10/02 08:09:07;;;;;;;22.45;17.13;;;14.50;99.90;;;;;;5078801;28;20047;-64
2021/10/02 08:11:33;;;;;;;19.83;15.30;;;14.50;99.90;;;;;;5071602;28;20033;-64
2021/10/02 08:13:59;;;;;;;22.85;16.45;;;14.70;99.90;;;;;;5067631;28;20041;-64
2021/10/02 08:16:30;;;;;;;19.88;15.90;;;14.70;99.90;;;;;;5071147;28;20040;-64
2021/10/02 08:18:57;;;;;;;22.50;15.93;;;14.70;99.90;;;;;;5066079;28;20070;-64
2021/10/02 08:21:24;;;;;;;18.98;15.75;;;14.80;99.90;;;;;;5081327;28;20062;-64
2021/10/02 08:23:51;;;;;;;20.55;15.85;;;14.90;99.90;;;;;;5068543;28;20099;-63
2021/10/02 08:26:18;;;;;;;22.02;16.25;;;14.80;99.90;;;;;;5073266;28;20534;-63
2021/10/02 08:28:49;;;;;;;19.08;14.88;;;14.80;99.90;;;;;;5079662;28;20076;-64
2021/10/02 08:31:21;;;;;;;22.83;16.08;;;14.80;99.90;;;;;;5081275;28;20049;-64
2021/10/02 08:33:47;;;;;;;19.05;14.55;;;14.80;99.90;;;;;;5082622;28;20049;-63
2021/10/02 08:36:13;;;;;;;19.25;15.23;;;14.80;99.90;;;;;;5082628;28;20036;-63
2021/10/02 08:38:39;;;;;;;20.17;14.32;;;14.80;99.90;;;;;;5084113;28;20086;-62
2021/10/02 08:41:07;;;;;;;21.45;15.10;;;14.80;99.90;;;;;;5083135;28;20037;-62
2021/10/02 08:43:34;;;;;;;19.85;14.77;;;14.80;99.90;;;;;;5082725;28;20048;-62
2021/10/02 08:46:02;;;;;;;21.67;15.02;;;14.80;99.90;;;;;;5096904;28;20112;-62
2021/10/02 08:48:29;;;;;;;18.92;14.63;;;14.80;99.90;;;;;;5083673;28;20370;-62
2021/10/02 08:50:56;;;;;;;15.77;13.63;;;14.80;99.90;;;;;;5083188;28;20040;-62
2021/10/02 08:53:28;;;;;;;17.65;14.13;;;14.70;99.90;;;;;;5077239;28;20190;-62
2021/10/02 08:55:54;;;;;;;18.35;13.98;;;14.80;99.90;;;;;;5082520;28;20037;-62
2021/10/02 08:58:21;;;;;;;21.13;14.98;;;14.80;99.90;;;;;;5084978;28;20055;-62
2021/10/02 09:00:47;;;;;;;18.50;14.95;;;14.80;99.90;;;;;;5083932;28;20055;-62
2021/10/02 09:03:13;;;;;;;22.08;14.13;;;14.90;99.90;;;;;;5083739;28;20045;-63
2021/10/02 09:05:39;;;;;;;17.95;13.07;;;14.90;99.90;;;;;;5080951;28;20057;-62
2021/10/02 09:08:05;;;;;;;18.55;14.32;;;15.00;99.90;;;;;;5080256;28;20041;-62
2021/10/02 09:10:34;;;;;;;18.55;13.32;;;15.00;99.90;;;;;;5079341;28;20413;-62
2021/10/02 09:12:59;;;;;;;17.33;13.15;;;15.10;99.90;;;;;;5065004;28;20120;-63
2021/10/02 09:15:26;;;;;;;18.83;13.10;;;15.10;99.90;;;;;;5083181;28;20047;-62
2021/10/02 09:17:52;;;;;;;14.43;12.80;;;15.20;99.90;;;;;;5067349;28;20720;-63
2021/10/02 09:20:19;;;;;;;20.10;14.48;;;15.10;99.90;;;;;;5069282;28;20045;-63
2021/10/02 09:23:00;;;;;;;17.65;13.57;;;15.00;99.90;;;;;;5076611;28;20512;-63
2021/10/02 09:25:28;;;;;;;17.63;12.30;;;15.10;99.90;;;;;;5074574;28;20078;-62
2021/10/02 09:28:11;;;;;;;19.33;12.95;;;15.00;99.90;;;;;;5065576;28;20045;-62
2021/10/02 09:30:40;;;;;;;17.42;12.82;;;15.00;99.90;;;;;;5077378;28;20057;-62
2021/10/02 09:33:20;;;;;;;19.45;14.13;;;14.90;99.90;;;;;;5068137;28;20052;-63
2021/10/02 09:35:46;;;;;;;;;;;15.00;99.90;;;;;;5031300;27;20051;-62
2021/10/02 09:38:15;;;;;;;14.77;11.95;;;15.20;99.90;;;;;;5075018;28;19928;-62
2021/10/02 09:40:52;;;;;;;16.23;12.23;;;15.20;99.90;;;;;;5081428;28;20040;-62
2021/10/02 09:43:18;;;;;;;15.05;11.43;;;15.20;99.90;;;;;;5079063;28;20084;-62
2021/10/02 09:45:44;;;;;;;16.15;11.43;;;15.20;99.90;;;;;;5079820;28;20665;-62
2021/10/02 09:48:15;;;;;;;15.73;11.05;;;15.10;99.90;;;;;;5064203;28;20048;-61
2021/10/02 09:50:46;;;;;;;17.00;11.77;;;15.10;99.90;;;;;;5063638;28;20075;-62
2021/10/02 09:53:16;;;;;;;15.10;10.70;;;15.10;99.90;;;;;;5071535;28;20741;-62
2021/10/02 09:55:44;;;;;;;;;;;15.20;99.90;;;;;;5064924;28;20101;-62
2021/10/02 09:58:15;;;;;;;15.30;10.90;;;15.30;99.90;;;;;;5075603;28;19954;-62
2021/10/02 10:00:42;;;;;;;15.15;10.38;;;15.40;99.90;;;;;;5091101;27;20063;-62
2021/10/02 10:03:10;;;;;;;14.77;11.88;;;15.40;99.90;;;;;;5072572;28;20052;-61
2021/10/02 10:05:39;;;;;;;13.00;10.93;;;15.50;99.90;;;;;;5077118;28;20058;-63
2021/10/02 10:08:11;;;;;;;13.85;10.95;;;15.60;99.90;;;;;;5078732;28;20044;-63
2021/10/02 10:10:39;;;;;;;15.55;10.57;;;15.60;99.90;;;;;;5098010;28;20062;-62
2021/10/02 10:13:12;;;;;;;12.60;10.00;;;15.50;99.90;;;;;;5075547;28;20083;-62
2021/10/02 10:15:47;;;;;;;11.95;8.52;;;15.60;99.90;;;;;;5100814;28;20104;-63
2021/10/02 10:18:34;;;;;;;10.93;8.05;;;15.70;99.90;;;;;;5079558;28;20052;-65
2021/10/02 10:21:03;;;;;;;12.02;8.27;;;15.80;99.90;;;;;;5051987;28;20051;-64
2021/10/02 10:23:45;;;;;;;8.85;7.30;;;15.70;99.90;;;;;;5068467;27;20048;-63
2021/10/02 10:26:16;;;;;;;12.40;7.95;;;15.70;99.90;;;;;;5092238;28;20044;-62
2021/10/02 10:28:47;;;;;;;10.85;6.57;;;15.80;99.90;;;;;;5072286;27;20065;-62
2021/10/02 10:31:17;;;;;;;8.52;5.75;;;15.80;99.90;;;;;;5091867;28;20085;-62
2021/10/02 10:33:46;;;;;;;8.80;5.25;;;15.80;99.90;;;;;;5075813;27;20642;-63
2021/10/02 10:36:13;;;;;;;10.18;5.82;;;16.00;99.90;;;;;;5078544;28;20240;-63
2021/10/02 10:38:41;;;;;;;8.45;5.60;;;16.00;99.90;;;;;;5070070;27;20044;-63
2021/10/02 10:41:07;;;;;;;7.82;5.40;;;16.00;99.90;;;;;;5092087;28;20059;-63
2021/10/02 10:43:34;;;;;;;7.20;4.97;;;15.90;99.90;;;;;;5064919;28;20047;-63
2021/10/02 10:46:07;;;;;;;6.60;4.13;;;15.90;99.90;;;;;;5084265;28;20064;-62
2021/10/02 10:48:34;;;;;;;8.00;5.45;;;16.00;99.90;;;;;;5063835;28;20053;-66
2021/10/02 10:51:14;;;;;;;7.18;4.60;;;16.10;99.90;;;;;;5085677;28;20051;-63
2021/10/02 10:53:41;;;;;;;;;;;16.20;99.90;;;;;;5068118;27;20117;-63
2021/10/02 10:56:08;;;;;;;7.30;3.67;;;16.20;99.90;;;;;;5108851;28;19931;-63
2021/10/02 10:58:34;;;;;;;6.88;4.20;;;16.40;99.90;;;;;;5058528;28;20048;-63
2021/10/02 11:01:03;;;;;;;5.40;3.47;;;16.40;99.90;;;;;;5100824;28;20056;-62
2021/10/02 11:03:40;;;;;;;7.85;3.10;;;16.60;99.90;;;;;;5072262;28;20083;-63
2021/10/02 11:06:14;;;;;;;6.35;3.20;;;16.70;99.90;;;;;;5068677;28;20129;-63
2021/10/02 11:09:06;;;;;;;6.35;3.00;;;16.70;99.90;;;;;;5069123;27;20044;-63
2021/10/02 11:12:03;;;;;;;6.70;3.08;;;16.70;99.90;;;;;;5080751;28;20064;-63
2021/10/02 11:14:47;;;;;;;4.75;2.95;;;16.60;99.90;;;;;;5079221;28;20089;-62
2021/10/02 11:17:14;;;;;;;5.57;2.30;;;16.70;99.90;;;;;;5085590;28;20049;-63
2021/10/02 11:19:42;;;;;;;3.78;2.33;;;16.60;99.90;;;;;;5080337;28;20047;-63
2021/10/02 11:22:34;;;;;;;6.68;2.67;;;16.60;99.90;;;;;;5092899;28;20401;-63
2021/10/02 11:25:00;;;;;;;6.60;2.60;;;16.70;99.90;;;;;;5087404;28;20575;-63
2021/10/02 11:27:27;;;;;;;5.72;2.78;;;16.70;99.90;;;;;;5081844;28;20080;-63
2021/10/02 11:29:53;;;;;;;8.45;2.90;;;16.80;99.90;;;;;;5079823;28;20075;-63
2021/10/02 11:32:30;;;;;;;6.05;2.92;;;16.80;99.90;;;;;;5073870;28;20148;-63
2021/10/02 11:35:08;;;;;;;8.63;3.25;;;16.60;99.90;;;;;;5060161;28;20119;-63
2021/10/02 11:37:51;;;;;;;5.55;2.55;;;16.80;99.90;;;;;;5086881;27;20052;-64
2021/10/02 11:40:35;;;;;;;4.97;2.40;;;16.80;99.90;;;;;;5066855;28;20044;-65
2021/10/02 11:43:13;;;;;;;5.93;2.85;;;16.80;99.90;;;;;;5078310;28;20040;-64
2021/10/02 11:45:52;;;;;;;4.28;2.50;;;16.90;99.90;;;;;;5082877;28;20113;-63
2021/10/02 11:48:29;;;;;;;5.40;3.00;;;16.80;99.90;;;;;;5112054;28;20051;-63
2021/10/02 11:51:15;;;;;;;6.90;2.42;;;16.80;99.90;;;;;;5079722;28;20058;-64
2021/10/02 11:53:43;;;;;;;8.00;3.38;;;16.90;99.90;;;;;;5075329;28;20079;-63
2021/10/02 11:56:18;;;;;;;5.05;2.60;;;16.70;99.90;;;;;;5049339;28;20047;-64
2021/10/02 11:58:47;;;;;;;5.80;2.10;;;16.80;99.90;;;;;;5069245;28;20041;-65
2021/10/02 12:01:38;;;;;;;7.53;2.63;;;16.70;99.90;;;;;;5092116;28;20122;-63
2021/10/02 12:04:12;;;;;;;5.13;2.60;;;16.70;99.90;;;;;;5070127;27;20048;-63
2021/10/02 12:06:41;;;;;;;7.25;2.20;;;16.70;99.90;;;;;;5088712;28;20041;-64
2021/10/02 12:09:17;;;;;;;6.63;2.00;;;16.70;99.90;;;;;;5060306;28;20052;-64
2021/10/02 12:11:46;;;;;;;4.45;2.10;;;16.60;99.90;;;;;;5083012;28;20108;-63
2021/10/02 12:14:14;;;;;;;5.45;2.30;;;16.50;99.90;;;;;;5067452;27;20062;-62
2021/10/02 12:16:40;;;;;;;8.57;2.95;;;16.50;99.90;;;;;;5087521;28;20139;-63
2021/10/02 12:19:11;;;;;;;4.13;2.25;;;16.50;99.90;;;;;;5069966;27;20068;-65
2021/10/02 12:21:36;;;;;;;4.80;2.50;;;16.50;99.90;;;;;;5102170;28;20078;-66
2021/10/02 12:24:04;;;;;;;5.60;2.60;;;16.60;99.90;;;;;;5065337;27;20045;-64
2021/10/02 12:26:36;;;;;;;6.22;2.55;;;16.50;99.90;;;;;;5083315;28;20044;-63
2021/10/02 12:29:04;;;;;;;5.55;2.53;;;16.50;99.90;;;;;;5059697;28;20123;-66
2021/10/02 12:32:10;;;;;;;7.97;3.00;;;16.50;99.90;;;;;;5087099;28;20107;-67
2021/10/02 12:34:47;;;;;;;5.40;2.55;;;16.50;99.90;;;;;;5066824;28;20048;-64
2021/10/02 12:37:19;;;;;;;5.13;2.25;;;16.50;99.90;;;;;;5033968;28;20500;-66
2021/10/02 12:40:06;;;;;;;4.07;2.63;;;16.60;99.90;;;;;;5052139;28;20075;-67
2021/10/02 12:42:47;;;;;;;5.35;2.55;;;16.50;99.90;;;;;;5065691;28;20123;-63
2021/10/02 12:45:20;;;;;;;5.15;2.50;;;16.50;99.90;;;;;;5060555;28;20052;-64
2021/10/02 12:48:14;;;;;;;4.75;2.67;;;16.40;99.90;;;;;;5041565;28;20057;-65
2021/10/02 12:50:42;;;;;;;5.97;3.10;;;16.30;99.90;;;;;;5035480;28;20067;-64
2021/10/02 12:53:08;;;;;;;7.07;2.90;;;16.30;99.90;;;;;;5059707;28;20060;-64
2021/10/02 12:55:35;;;;;;;6.45;2.72;;;16.30;99.90;;;;;;5020670;28;20049;-66
2021/10/02 12:58:01;;;;;;;5.75;3.13;;;16.20;99.90;;;;;;5064960;28;20093;-63
2021/10/02 13:00:30;;;;;;;7.32;3.28;;;16.30;99.90;;;;;;5035686;28;20056;-65
2021/10/02 13:03:03;;;;;;;6.18;3.05;;;16.30;99.90;;;;;;5043120;28;20049;-65
2021/10/02 13:05:32;;;;;;;6.00;2.60;;;16.30;99.90;;;;;;5030849;28;20045;-64
2021/10/02 13:08:00;;;;;;;6.68;2.80;;;16.30;99.90;;;;;;5051303;28;20048;-65
2021/10/02 13:10:31;;;;;;;6.32;2.90;;;16.30;99.90;;;;;;5046581;28;20107;-67
2021/10/02 13:13:05;;;;;;;9.30;3.72;;;16.30;99.90;;;;;;5067202;28;20060;-65
2021/10/02 13:15:41;;;;;;;5.93;2.90;;;16.30;99.90;;;;;;5040800;28;20055;-65
2021/10/02 13:18:16;;;;;;;5.10;2.80;;;16.30;99.90;;;;;;5039296;28;20049;-65
2021/10/02 13:20:41;;;;;;;5.22;2.72;;;16.40;99.90;;;;;;5041687;28;20210;-64
2021/10/02 13:23:11;;;;;;;5.50;3.10;;;16.40;99.90;;;;;;5023043;28;20069;-62
2021/10/02 13:25:41;;;;;;;;;;;16.50;99.90;;;;;;5044174;28;20055;-65
2021/10/02 13:28:17;;;;;;;;;;;16.40;99.90;;;;;;5069611;28;19925;-65
2021/10/02 13:30:43;;;;;;;6.53;2.80;;;16.40;99.90;;;;;;5052120;28;19996;-65
2021/10/02 13:33:13;;;;;;;5.53;2.53;;;16.40;99.90;;;;;;5063390;28;20064;-64
2021/10/02 13:35:45;;;;;;;5.82;2.08;;;16.40;99.90;;;;;;5029128;28;20045;-65
2021/10/02 13:38:10;;;;;;;5.28;2.20;;;16.50;99.90;;;;;;5075918;28;20091;-64
2021/10/02 13:40:39;;;;;;;4.90;1.95;;;16.50;99.90;;;;;;5043068;28;20057;-65